Modeste, Louisiana
Current Conditions -  °F | °C
As of 12:35 PM on Saturday 25 Oct 2014 (Local Time) from KL38 Reporting Station
Clear Clear  
Wind Chill: 76°   Ceiling: Unl
Heat Index: 76°   Visibility: 10mi
Dew Point: 54°   Wind: 3mph
Humidity: 47%   Direction: 340°NNW
Pressure: 30.14"   Gusts: NA
Location:  30.17°N, 91.01°W
Report Text: KL38 251735Z AUTO 34003KT 10SM CLR 24/12 A3014 RMK AO2 T02420121
Loading
Personal Weather Stations






























Interactive Weather Map
Tropical Storm Tracking
New forecast layout! Learn more

10-Day Weather Forecast

Advertisements
Track Severe Weather on mobile